Time;durP1;ratioP1;P1;durP2;ratioP2;P2;SDS_P1;SDS_P2;PMS_P1;PMS_P2;Temp;Humidity;BMP_temperature;BMP_pressure;BME280_temperature;BME280_humidity;BME280_pressure;Samples;Min_cycle;Max_cycle;Signal;HPM_P1;HPM_P2
2022/10/12 00:01:30;;;;;;;8.52;3.20;;;;;;;;;;5027872;28;20495;-68
2022/10/12 00:03:56;;;;;;;8.00;4.15;;;;;;;;;;5027376;28;20103;-69
2022/10/12 00:06:23;;;;;;;7.53;3.30;;;;;;;;;;5028466;28;20067;-70
2022/10/12 00:08:51;;;;;;;6.05;3.35;;;;;;;;;;5027710;28;20045;-70
2022/10/12 00:11:20;;;;;;;6.93;3.47;;;;;;;;;;5028038;28;20052;-67
2022/10/12 00:13:46;;;;;;;11.38;3.60;;;;;;;;;;5029769;28;20521;-70
2022/10/12 00:16:14;;;;;;;7.93;3.53;;;;;;;;;;5029824;28;20041;-66
2022/10/12 00:18:40;;;;;;;10.35;3.42;;;;;;;;;;5026997;28;20053;-67
2022/10/12 00:21:12;;;;;;;7.82;3.45;;;;;;;;;;5027432;28;20115;-69
2022/10/12 00:23:38;;;;;;;6.88;3.33;;;;;;;;;;5026625;28;20072;-67
2022/10/12 00:26:08;;;;;;;11.95;3.38;;;;;;;;;;5019969;28;20077;-68
2022/10/12 00:28:34;;;;;;;9.93;3.42;;;;;;;;;;5026228;28;20053;-68
2022/10/12 00:31:01;;;;;;;6.70;3.65;;;;;;;;;;5027643;28;20041;-69
2022/10/12 00:33:28;;;;;;;8.82;3.47;;;;;;;;;;5011865;28;20054;-71
2022/10/12 00:35:54;;;;;;;7.72;3.60;;;;;;;;;;5026381;28;20115;-70
2022/10/12 00:38:23;;;;;;;9.40;3.95;;;;;;;;;;5026802;28;20054;-67
2022/10/12 00:40:49;;;;;;;7.20;3.53;;;;;;;;;;5026881;28;20037;-67
2022/10/12 00:43:46;;;;;;;10.32;4.22;;;;;;;;;;5018092;28;20046;-68
2022/10/12 00:46:21;;;;;;;10.63;3.80;;;;;;;;;;5029361;28;20090;-65
2022/10/12 00:49:11;;;;;;;7.47;3.90;;;;;;;;;;5032304;28;20050;-68
2022/10/12 00:51:39;;;;;;;8.45;3.60;;;;;;;;;;5022773;28;20495;-68
2022/10/12 00:54:11;;;;;;;6.95;3.20;;;;;;;;;;5017321;28;20049;-68
2022/10/12 00:56:40;;;;;;;9.02;3.47;;;;;;;;;;5032748;28;20052;-66
2022/10/12 00:59:12;;;;;;;8.18;3.40;;;;;;;;;;5032600;28;20045;-66
2022/10/12 01:01:38;;;;;;;9.35;3.65;;;;;;;;;;5036435;28;20046;-70
2022/10/12 01:04:06;;;;;;;6.88;3.53;;;;;;;;;;5034928;28;20461;-68
2022/10/12 01:06:32;;;;;;;9.13;3.70;;;;;;;;;;5033101;28;20041;-68
2022/10/12 01:08:59;;;;;;;8.43;3.60;;;;;;;;;;5028166;28;20061;-68
2022/10/12 01:11:25;;;;;;;7.47;3.50;;;;;;;;;;5032693;28;20061;-66
2022/10/12 01:13:51;;;;;;;7.63;3.70;;;;;;;;;;5029465;28;20041;-68
2022/10/12 01:16:32;;;;;;;10.45;3.95;;;;;;;;;;5029847;28;20053;-67
2022/10/12 01:19:25;;;;;;;8.63;4.18;;;;;;;;;;5029500;28;20077;-68
2022/10/12 01:22:03;;;;;;;8.57;4.60;;;;;;;;;;5031090;28;20056;-67
2022/10/12 01:24:38;;;;;;;11.32;4.53;;;;;;;;;;5028948;28;20507;-66
2022/10/12 01:27:31;;;;;;;8.45;4.53;;;;;;;;;;5023914;28;20068;-67
2022/10/12 01:30:35;;;;;;;9.38;4.63;;;;;;;;;;5020476;28;20140;-70
2022/10/12 01:33:18;;;;;;;12.07;3.92;;;;;;;;;;4960854;28;20047;-66
2022/10/12 01:36:04;;;;;;;11.37;4.50;;;;;;;;;;4971369;28;20058;-65
2022/10/12 01:38:50;;;;;;;10.68;4.40;;;;;;;;;;4967833;28;20051;-66
2022/10/12 01:41:28;;;;;;;10.40;3.92;;;;;;;;;;4969718;28;20497;-68
2022/10/12 01:43:54;;;;;;;8.38;4.05;;;;;;;;;;4960228;28;20039;-67
2022/10/12 01:46:20;;;;;;;10.25;3.92;;;;;;;;;;4968681;28;20122;-65
2022/10/12 01:48:50;;;;;;;9.88;4.10;;;;;;;;;;4965553;28;20142;-67
2022/10/12 01:51:28;;;;;;;10.88;4.57;;;;;;;;;;4957519;28;20061;-66
2022/10/12 01:54:12;;;;;;;13.70;4.75;;;;;;;;;;4966364;28;20046;-68
2022/10/12 01:57:05;;;;;;;8.02;4.22;;;;;;;;;;4967862;28;20051;-66
2022/10/12 01:59:37;;;;;;;13.15;4.90;;;;;;;;;;4968025;28;20066;-69
2022/10/12 02:02:35;;;;;;;10.57;4.40;;;;;;;;;;4964128;28;20493;-66
2022/10/12 02:05:10;;;;;;;7.38;4.32;;;;;;;;;;4971054;28;20054;-69
2022/10/12 02:07:36;;;;;;;10.85;4.30;;;;;;;;;;5000083;28;20121;-68
2022/10/12 02:10:04;;;;;;;10.60;4.20;;;;;;;;;;5022380;28;20056;-67
2022/10/12 02:17:43;;;;;;;8.45;4.93;;;;;;;;;;5245548;23;20061;-72
2022/10/12 02:20:13;;;;;;;6.57;4.10;;;;;;;;;;5012676;28;20053;-68
2022/10/12 02:22:41;;;;;;;7.10;4.25;;;;;;;;;;5014954;28;20072;-73
2022/10/12 02:25:10;;;;;;;10.18;4.47;;;;;;;;;;5013505;28;20049;-70
2022/10/12 02:27:41;;;;;;;7.72;3.90;;;;;;;;;;5008965;28;20046;-70
2022/10/12 02:30:08;;;;;;;7.70;4.00;;;;;;;;;;5013378;28;20111;-70
2022/10/12 02:32:55;;;;;;;12.77;4.25;;;;;;;;;;5009048;28;20065;-70
2022/10/12 02:35:24;;;;;;;7.88;4.32;;;;;;;;;;5003681;28;20078;-70
2022/10/12 02:37:55;;;;;;;7.78;4.07;;;;;;;;;;4993047;28;20046;-69
2022/10/12 02:40:31;;;;;;;11.30;4.40;;;;;;;;;;5012702;28;20140;-69
2022/10/12 02:43:04;;;;;;;8.27;3.97;;;;;;;;;;5010881;28;20046;-69
2022/10/12 02:45:33;;;;;;;13.15;4.68;;;;;;;;;;5009642;28;20050;-71
2022/10/12 02:48:00;;;;;;;7.78;4.03;;;;;;;;;;5011170;28;20562;-75
2022/10/12 02:50:27;;;;;;;8.00;3.97;;;;;;;;;;5010394;28;20045;-72
2022/10/12 02:52:53;;;;;;;12.40;4.47;;;;;;;;;;5003472;28;20046;-70
2022/10/12 02:55:19;;;;;;;7.40;3.83;;;;;;;;;;5010009;28;20629;-69
2022/10/12 02:57:45;;;;;;;8.07;4.13;;;;;;;;;;5014730;28;20050;-69
2022/10/12 03:00:11;;;;;;;7.82;3.92;;;;;;;;;;5009001;28;20049;-71
2022/10/12 03:02:37;;;;;;;9.30;3.50;;;;;;;;;;5012188;28;20128;-70
2022/10/12 03:05:03;;;;;;;8.68;3.30;;;;;;;;;;5012182;28;20193;-69
2022/10/12 03:07:29;;;;;;;9.05;3.30;;;;;;;;;;5007760;28;20100;-70
2022/10/12 03:09:55;;;;;;;7.88;3.55;;;;;;;;;;5006206;28;20487;-70
2022/10/12 03:12:21;;;;;;;6.07;3.65;;;;;;;;;;5007135;28;20049;-70
2022/10/12 03:14:46;;;;;;;9.07;3.55;;;;;;;;;;5010086;28;20042;-70
2022/10/12 03:17:13;;;;;;;12.27;3.30;;;;;;;;;;5009685;28;20081;-70
2022/10/12 03:19:38;;;;;;;17.17;4.40;;;;;;;;;;5009097;28;20332;-69
2022/10/12 03:22:05;;;;;;;9.93;3.72;;;;;;;;;;5009043;28;20060;-71
2022/10/12 03:24:31;;;;;;;14.65;3.83;;;;;;;;;;5001606;28;20042;-71
2022/10/12 03:26:57;;;;;;;8.70;3.40;;;;;;;;;;4996783;28;20494;-69
2022/10/12 03:29:22;;;;;;;8.52;3.58;;;;;;;;;;5011338;28;20058;-70
2022/10/12 03:31:48;;;;;;;7.28;3.28;;;;;;;;;;5012596;28;20414;-71
2022/10/12 03:34:14;;;;;;;7.15;3.60;;;;;;;;;;5001336;28;20133;-70
2022/10/12 03:36:40;;;;;;;10.55;3.90;;;;;;;;;;5006621;28;20161;-69
2022/10/12 03:39:06;;;;;;;9.57;3.25;;;;;;;;;;5011528;28;20057;-69
2022/10/12 03:41:31;;;;;;;9.63;3.47;;;;;;;;;;5012082;28;20069;-71
2022/10/12 03:43:58;;;;;;;10.35;3.80;;;;;;;;;;5003800;28;20121;-70
2022/10/12 03:46:23;;;;;;;6.55;3.30;;;;;;;;;;5002029;28;21965;-74
2022/10/12 03:48:49;;;;;;;5.40;3.13;;;;;;;;;;5011824;28;20092;-69
2022/10/12 03:51:15;;;;;;;6.72;3.25;;;;;;;;;;5011879;28;20073;-71
2022/10/12 03:53:41;;;;;;;9.85;3.60;;;;;;;;;;5008953;28;20403;-69
2022/10/12 03:56:07;;;;;;;9.27;3.40;;;;;;;;;;5005675;28;20407;-69
2022/10/12 03:58:33;;;;;;;10.77;3.42;;;;;;;;;;5005339;28;20054;-69
2022/10/12 04:00:59;;;;;;;7.60;3.40;;;;;;;;;;5007686;28;20066;-71
2022/10/12 04:03:25;;;;;;;7.57;3.58;;;;;;;;;;5004094;28;20551;-73
2022/10/12 04:05:54;;;;;;;7.55;3.60;;;;;;;;;;5011738;28;20383;-69
2022/10/12 04:08:21;;;;;;;7.90;3.40;;;;;;;;;;5000622;28;20052;-71
2022/10/12 04:10:49;;;;;;;8.73;3.30;;;;;;;;;;4997894;28;20046;-69
2022/10/12 04:13:16;;;;;;;11.88;4.57;;;;;;;;;;5005280;28;20077;-71
2022/10/12 04:15:42;;;;;;;9.82;3.45;;;;;;;;;;5008714;28;20046;-75
2022/10/12 04:18:08;;;;;;;5.68;3.63;;;;;;;;;;5009564;28;20057;-70
2022/10/12 04:20:33;;;;;;;8.05;3.83;;;;;;;;;;5014505;28;20050;-69
2022/10/12 04:22:59;;;;;;;6.68;3.35;;;;;;;;;;5014267;28;20045;-70
2022/10/12 04:25:25;;;;;;;12.18;3.75;;;;;;;;;;4994786;28;20054;-70
2022/10/12 04:27:51;;;;;;;9.85;3.42;;;;;;;;;;5011811;28;20042;-70
2022/10/12 04:30:17;;;;;;;9.35;3.85;;;;;;;;;;5011791;28;20052;-69
2022/10/12 04:32:43;;;;;;;7.35;3.47;;;;;;;;;;5007474;28;20479;-69
2022/10/12 04:35:09;;;;;;;7.68;3.53;;;;;;;;;;5011923;28;20100;-70
2022/10/12 04:37:35;;;;;;;6.28;3.10;;;;;;;;;;5009283;28;20387;-72
2022/10/12 04:40:02;;;;;;;8.02;3.25;;;;;;;;;;5011278;28;20073;-68
2022/10/12 04:42:28;;;;;;;8.63;3.80;;;;;;;;;;5010614;28;20096;-72
2022/10/12 04:44:54;;;;;;;11.32;3.67;;;;;;;;;;5012458;28;20049;-70
2022/10/12 04:47:21;;;;;;;12.10;4.10;;;;;;;;;;5006938;28;20444;-71
2022/10/12 04:49:47;;;;;;;13.73;3.83;;;;;;;;;;5007979;28;20070;-70
2022/10/12 04:52:13;;;;;;;12.40;4.30;;;;;;;;;;5010164;28;20158;-69
2022/10/12 04:54:39;;;;;;;11.32;4.35;;;;;;;;;;5004916;28;20054;-69
2022/10/12 04:57:05;;;;;;;15.07;3.97;;;;;;;;;;5001635;28;20050;-70
2022/10/12 04:59:31;;;;;;;9.40;4.15;;;;;;;;;;5010376;28;20061;-69
2022/10/12 05:01:56;;;;;;;13.75;4.30;;;;;;;;;;5010218;28;20046;-69
2022/10/12 05:04:22;;;;;;;8.13;3.72;;;;;;;;;;5011418;28;20057;-72
2022/10/12 05:06:48;;;;;;;15.30;4.93;;;;;;;;;;5004700;28;20128;-71
2022/10/12 05:09:14;;;;;;;16.52;4.90;;;;;;;;;;5005725;28;20422;-70
2022/10/12 05:11:40;;;;;;;11.82;4.50;;;;;;;;;;5007864;28;20038;-70
2022/10/12 05:14:07;;;;;;;9.80;4.40;;;;;;;;;;5009025;28;20086;-71
2022/10/12 05:16:33;;;;;;;9.18;4.43;;;;;;;;;;5010210;28;20085;-72
2022/10/12 05:18:59;;;;;;;8.32;4.30;;;;;;;;;;5012198;28;20038;-69
2022/10/12 05:21:25;;;;;;;13.23;4.93;;;;;;;;;;5012895;28;20049;-71
2022/10/12 05:23:51;;;;;;;15.23;6.13;;;;;;;;;;5012439;28;20050;-71
2022/10/12 05:26:17;;;;;;;9.77;5.13;;;;;;;;;;5007173;28;20058;-73
2022/10/12 05:28:43;;;;;;;12.73;4.50;;;;;;;;;;5005977;28;20034;-71
2022/10/12 05:31:09;;;;;;;9.80;4.20;;;;;;;;;;5009264;28;20046;-70
2022/10/12 05:33:35;;;;;;;9.10;4.40;;;;;;;;;;5012126;28;20056;-72
2022/10/12 05:36:01;;;;;;;9.00;4.22;;;;;;;;;;5013904;28;20045;-71
2022/10/12 05:38:27;;;;;;;13.13;4.32;;;;;;;;;;5008630;28;20056;-70
2022/10/12 05:40:53;;;;;;;7.80;4.50;;;;;;;;;;5005711;28;20042;-70
2022/10/12 05:43:19;;;;;;;8.02;3.90;;;;;;;;;;5002821;28;20117;-69
2022/10/12 05:45:45;;;;;;;8.75;4.22;;;;;;;;;;5004588;28;20114;-71
2022/10/12 05:48:11;;;;;;;9.15;4.75;;;;;;;;;;5013032;28;20042;-72
2022/10/12 05:50:37;;;;;;;10.20;4.90;;;;;;;;;;5009417;28;20542;-69
2022/10/12 05:53:03;;;;;;;9.85;4.22;;;;;;;;;;5006425;28;20053;-72
2022/10/12 05:55:28;;;;;;;9.02;4.40;;;;;;;;;;4998252;28;20043;-69
2022/10/12 05:57:55;;;;;;;8.57;3.90;;;;;;;;;;5001521;28;20057;-71
2022/10/12 06:00:21;;;;;;;7.07;3.78;;;;;;;;;;5007810;28;20046;-69
2022/10/12 06:02:47;;;;;;;12.52;4.60;;;;;;;;;;5001792;28;20120;-71
2022/10/12 06:05:12;;;;;;;7.90;4.50;;;;;;;;;;5005791;28;20077;-70
2022/10/12 06:07:39;;;;;;;11.73;4.20;;;;;;;;;;5008685;28;20046;-69
2022/10/12 06:10:05;;;;;;;9.95;3.85;;;;;;;;;;4998481;28;20057;-72
2022/10/12 06:12:31;;;;;;;11.13;4.43;;;;;;;;;;5012541;28;20042;-69
2022/10/12 06:14:57;;;;;;;7.35;4.03;;;;;;;;;;5004383;28;20054;-72
2022/10/12 06:17:23;;;;;;;7.63;4.47;;;;;;;;;;5008566;28;20065;-72
2022/10/12 06:19:49;;;;;;;7.78;4.25;;;;;;;;;;5010410;28;20046;-71
2022/10/12 06:22:15;;;;;;;13.43;4.43;;;;;;;;;;5006059;28;20132;-71
2022/10/12 06:24:41;;;;;;;9.15;4.50;;;;;;;;;;5000419;28;20136;-68
2022/10/12 06:27:06;;;;;;;8.93;4.70;;;;;;;;;;5007092;28;20128;-70
2022/10/12 06:29:32;;;;;;;13.57;4.30;;;;;;;;;;4997108;28;20057;-71
2022/10/12 06:31:58;;;;;;;17.10;4.47;;;;;;;;;;4994010;28;20188;-72
2022/10/12 06:34:24;;;;;;;9.43;4.07;;;;;;;;;;5008844;28;20450;-70
2022/10/12 06:36:51;;;;;;;8.82;4.25;;;;;;;;;;5004980;28;20430;-71
2022/10/12 06:39:17;;;;;;;14.85;4.60;;;;;;;;;;5001225;28;20056;-71
2022/10/12 06:41:43;;;;;;;7.43;4.50;;;;;;;;;;4992774;28;20062;-71
2022/10/12 06:44:09;;;;;;;11.90;4.03;;;;;;;;;;4994847;28;20065;-70
2022/10/12 06:46:34;;;;;;;7.63;3.90;;;;;;;;;;4989288;28;20054;-71
2022/10/12 06:49:00;;;;;;;8.93;3.90;;;;;;;;;;4993785;28;20057;-70
2022/10/12 06:51:26;;;;;;;8.68;4.53;;;;;;;;;;4990711;28;20053;-70
2022/10/12 06:53:55;;;;;;;9.13;4.40;;;;;;;;;;4991694;28;20050;-68
2022/10/12 06:56:22;;;;;;;5.90;4.00;;;;;;;;;;4995362;28;20061;-71
2022/10/12 06:58:55;;;;;;;9.45;3.90;;;;;;;;;;4995136;28;20974;-71
2022/10/12 07:01:21;;;;;;;8.35;3.85;;;;;;;;;;4993737;28;20116;-70
2022/10/12 07:03:47;;;;;;;5.78;4.00;;;;;;;;;;5009781;28;20129;-68
2022/10/12 07:06:13;;;;;;;9.50;4.10;;;;;;;;;;4995482;28;20547;-71
2022/10/12 07:08:41;;;;;;;8.25;4.13;;;;;;;;;;4996367;28;20518;-70
2022/10/12 07:11:10;;;;;;;9.23;4.07;;;;;;;;;;4995989;28;20526;-69
2022/10/12 07:13:36;;;;;;;12.25;5.15;;;;;;;;;;4993850;28;20066;-70
2022/10/12 07:16:03;;;;;;;10.10;4.90;;;;;;;;;;4987385;28;20064;-70
2022/10/12 07:18:30;;;;;;;11.82;4.68;;;;;;;;;;4994922;28;20054;-71
2022/10/12 07:21:01;;;;;;;5.05;3.20;;;;;;;;;;4999118;28;20042;-68
2022/10/12 07:23:29;;;;;;;12.13;4.53;;;;;;;;;;4995238;28;20427;-68
2022/10/12 07:25:55;;;;;;;8.98;4.13;;;;;;;;;;4993243;28;20482;-68
2022/10/12 07:28:22;;;;;;;8.48;4.30;;;;;;;;;;4990921;28;20181;-69
2022/10/12 07:30:48;;;;;;;7.85;4.55;;;;;;;;;;4991535;28;20046;-68
2022/10/12 07:33:14;;;;;;;6.43;4.13;;;;;;;;;;4990606;28;20507;-69
2022/10/12 07:35:40;;;;;;;10.55;5.30;;;;;;;;;;4992284;28;20047;-72
2022/10/12 07:38:06;;;;;;;11.30;4.47;;;;;;;;;;4985121;28;20054;-71
2022/10/12 07:40:32;;;;;;;5.95;3.53;;;;;;;;;;4987165;28;20411;-70
2022/10/12 07:42:58;;;;;;;9.57;3.80;;;;;;;;;;4994219;28;20045;-74
2022/10/12 07:45:27;;;;;;;9.60;4.13;;;;;;;;;;4988500;28;20157;-74
2022/10/12 07:47:54;;;;;;;10.75;4.43;;;;;;;;;;4991126;28;20172;-70
2022/10/12 07:50:21;;;;;;;9.32;4.60;;;;;;;;;;4986579;28;20470;-71
2022/10/12 07:52:46;;;;;;;8.82;4.20;;;;;;;;;;4992608;28;20050;-72
2022/10/12 07:55:12;;;;;;;9.00;3.85;;;;;;;;;;4991880;28;20057;-71
2022/10/12 07:57:38;;;;;;;6.97;3.90;;;;;;;;;;4991938;28;20116;-72
2022/10/12 08:00:05;;;;;;;7.03;3.47;;;;;;;;;;4990559;28;20061;-73
2022/10/12 08:02:31;;;;;;;13.15;3.60;;;;;;;;;;4993527;28;20088;-72
2022/10/12 08:04:57;;;;;;;7.53;3.38;;;;;;;;;;4998127;28;20041;-70
2022/10/12 08:07:22;;;;;;;6.40;3.35;;;;;;;;;;4990416;28;20513;-71
2022/10/12 08:09:48;;;;;;;9.82;3.55;;;;;;;;;;4994648;28;20042;-71
2022/10/12 08:12:14;;;;;;;7.65;3.40;;;;;;;;;;4990544;28;20073;-70
2022/10/12 08:14:41;;;;;;;8.07;3.22;;;;;;;;;;4994331;28;20064;-73
2022/10/12 08:17:08;;;;;;;7.75;3.08;;;;;;;;;;4994166;28;20065;-71
2022/10/12 08:19:35;;;;;;;21.50;6.88;;;;;;;;;;4998149;28;20058;-71
2022/10/12 08:22:01;;;;;;;22.05;8.20;;;;;;;;;;4997600;28;20108;-67
2022/10/12 08:24:27;;;;;;;32.85;9.73;;;;;;;;;;4974933;28;20488;-69
2022/10/12 08:26:53;;;;;;;29.27;8.68;;;;;;;;;;4992662;28;20038;-67
2022/10/12 08:29:19;;;;;;;16.75;5.80;;;;;;;;;;4993145;28;20046;-68
2022/10/12 08:31:48;;;;;;;15.00;5.07;;;;;;;;;;4996323;28;20618;-72
2022/10/12 08:34:15;;;;;;;8.82;3.67;;;;;;;;;;4996362;28;20061;-70
2022/10/12 08:36:41;;;;;;;13.77;5.10;;;;;;;;;;4994255;28;20130;-69
2022/10/12 08:39:07;;;;;;;13.52;4.32;;;;;;;;;;4990713;28;20054;-70
2022/10/12 08:42:00;;;;;;;9.73;4.00;;;;;;;;;;4994748;28;20523;-70
2022/10/12 08:44:48;;;;;;;10.18;4.88;;;;;;;;;;4995167;28;20064;-67
2022/10/12 08:47:19;;;;;;;14.40;4.30;;;;;;;;;;4995931;28;20050;-72
2022/10/12 08:49:47;;;;;;;21.40;8.85;;;;;;;;;;4992271;28;20077;-71
2022/10/12 08:52:36;;;;;;;15.40;7.18;;;;;;;;;;4996483;28;20479;-70
2022/10/12 08:55:24;;;;;;;16.23;5.75;;;;;;;;;;4993470;28;20529;-68
2022/10/12 08:57:49;;;;;;;13.13;4.53;;;;;;;;;;4992651;28;20463;-71
2022/10/12 09:00:16;;;;;;;13.15;4.25;;;;;;;;;;4995671;28;20038;-67
2022/10/12 09:02:45;;;;;;;10.70;5.00;;;;;;;;;;4991698;28;20097;-67
2022/10/12 09:05:18;;;;;;;10.93;4.22;;;;;;;;;;4993965;28;20046;-65
2022/10/12 09:07:56;;;;;;;19.95;8.90;;;;;;;;;;4991864;28;20058;-65
2022/10/12 09:10:43;;;;;;;12.82;6.10;;;;;;;;;;4997767;28;20495;-67
2022/10/12 09:13:19;;;;;;;18.58;7.60;;;;;;;;;;4993227;28;20050;-66
2022/10/12 09:16:03;;;;;;;15.43;6.78;;;;;;;;;;5001201;28;20124;-69
2022/10/12 09:18:38;;;;;;;27.75;10.85;;;;;;;;;;4997765;28;20057;-65
2022/10/12 09:21:06;;;;;;;15.50;5.72;;;;;;;;;;5000297;28;20085;-66
2022/10/12 09:23:38;;;;;;;24.42;10.30;;;;;;;;;;4998393;28;20049;-68
2022/10/12 09:26:24;;;;;;;19.00;6.10;;;;;;;;;;4999294;28;20054;-69
2022/10/12 09:28:54;;;;;;;20.23;4.70;;;;;;;;;;4992613;28;20050;-68
2022/10/12 09:32:05;;;;;;;12.43;3.70;;;;;;;;;;4996766;28;20046;-66
2022/10/12 09:34:31;;;;;;;14.68;3.80;;;;;;;;;;4994014;28;20048;-70
2022/10/12 09:36:57;;;;;;;6.95;3.20;;;;;;;;;;4997245;28;20566;-71
2022/10/12 09:39:30;;;;;;;11.30;4.25;;;;;;;;;;4997819;28;20056;-68
2022/10/12 09:41:56;;;;;;;9.30;3.63;;;;;;;;;;4998109;28;20108;-75
2022/10/12 09:44:42;;;;;;;10.00;3.70;;;;;;;;;;4998456;28;20469;-68
2022/10/12 09:47:22;;;;;;;9.50;3.33;;;;;;;;;;4991857;28;20065;-67
2022/10/12 09:49:50;;;;;;;11.77;3.80;;;;;;;;;;5000223;28;20053;-71
2022/10/12 09:52:23;;;;;;;10.93;3.97;;;;;;;;;;4990860;28;20062;-67
2022/10/12 09:54:56;;;;;;;13.43;5.28;;;;;;;;;;4990312;28;20054;-69
2022/10/12 09:57:33;;;;;;;19.58;5.85;;;;;;;;;;4995987;28;20054;-65
2022/10/12 10:00:05;;;;;;;13.05;4.90;;;;;;;;;;4987183;28;20073;-69
2022/10/12 10:02:33;;;;;;;9.15;4.00;;;;;;;;;;4998844;28;20052;-67
2022/10/12 10:05:22;;;;;;;6.80;3.85;;;;;;;;;;4989572;28;20161;-68
2022/10/12 10:07:48;;;;;;;8.55;3.70;;;;;;;;;;4989549;28;20058;-67
2022/10/12 10:10:20;;;;;;;9.73;3.30;;;;;;;;;;4995161;28;20885;-66
2022/10/12 10:12:52;;;;;;;12.10;4.28;;;;;;;;;;4987969;28;20050;-67
2022/10/12 10:15:26;;;;;;;10.45;4.50;;;;;;;;;;4994781;28;20058;-66
2022/10/12 10:17:56;;;;;;;11.40;4.43;;;;;;;;;;4999796;28;20063;-67
2022/10/12 10:20:27;;;;;;;8.13;3.53;;;;;;;;;;4991353;28;20057;-71
2022/10/12 10:22:53;;;;;;;8.23;3.60;;;;;;;;;;4993084;28;20527;-70
2022/10/12 10:25:22;;;;;;;8.82;3.65;;;;;;;;;;4993929;28;20054;-69
2022/10/12 10:27:49;;;;;;;8.80;3.92;;;;;;;;;;4995021;28;20103;-70
2022/10/12 10:30:15;;;;;;;8.45;3.72;;;;;;;;;;5000240;28;20869;-70
2022/10/12 10:32:45;;;;;;;13.25;3.42;;;;;;;;;;4997672;28;20133;-73
2022/10/12 10:35:11;;;;;;;6.53;3.17;;;;;;;;;;4997462;28;20145;-68
2022/10/12 10:37:54;;;;;;;10.77;3.15;;;;;;;;;;4994842;28;20144;-68
2022/10/12 10:40:25;;;;;;;10.20;3.15;;;;;;;;;;4993970;28;20062;-66
2022/10/12 10:42:57;;;;;;;12.93;3.30;;;;;;;;;;4994311;28;20052;-69
2022/10/12 10:45:29;;;;;;;7.88;3.55;;;;;;;;;;4995650;28;20069;-68
2022/10/12 10:48:00;;;;;;;7.25;3.83;;;;;;;;;;4998890;28;20050;-67
2022/10/12 10:50:52;;;;;;;6.45;3.22;;;;;;;;;;4997246;28;20371;-66
2022/10/12 10:53:19;;;;;;;7.38;3.08;;;;;;;;;;4993517;28;20061;-67
2022/10/12 10:55:54;;;;;;;6.28;3.05;;;;;;;;;;4990882;28;20050;-66
2022/10/12 10:58:31;;;;;;;8.35;3.45;;;;;;;;;;4992491;28;20053;-65
2022/10/12 11:01:04;;;;;;;8.57;3.03;;;;;;;;;;4996177;28;20045;-70
2022/10/12 11:03:44;;;;;;;9.15;3.65;;;;;;;;;;4989800;28;20515;-66
2022/10/12 11:06:23;;;;;;;6.78;3.35;;;;;;;;;;4990662;28;20360;-70
2022/10/12 11:08:55;;;;;;;13.77;3.20;;;;;;;;;;4998033;28;20058;-69
2022/10/12 11:11:26;;;;;;;11.30;2.83;;;;;;;;;;4997184;28;20099;-71
2022/10/12 11:14:02;;;;;;;8.75;3.70;;;;;;;;;;4985046;28;20388;-72
2022/10/12 11:16:37;;;;;;;8.43;3.17;;;;;;;;;;4983462;28;20049;-68
2022/10/12 11:19:28;;;;;;;10.82;3.63;;;;;;;;;;4986707;28;20073;-72
2022/10/12 11:22:02;;;;;;;11.27;3.90;;;;;;;;;;4991266;28;20508;-71
2022/10/12 11:24:48;;;;;;;;;;;;;;;;;;4994747;28;20053;-70
2022/10/12 11:27:26;;;;;;;9.13;3.45;;;;;;;;;;4984493;28;19925;-74
2022/10/12 11:29:57;;;;;;;7.40;3.47;;;;;;;;;;4994927;28;20049;-72
2022/10/12 11:32:57;;;;;;;7.82;3.95;;;;;;;;;;4992618;28;20054;-74
2022/10/12 11:35:30;;;;;;;10.77;3.63;;;;;;;;;;4982134;28;20524;-74
2022/10/12 11:38:06;;;;;;;9.27;3.45;;;;;;;;;;4991508;28;20061;-76
2022/10/12 11:40:47;;;;;;;6.80;3.10;;;;;;;;;;4994100;28;20061;-73
2022/10/12 11:43:28;;;;;;;12.15;3.40;;;;;;;;;;4992058;28;20449;-74
2022/10/12 11:45:59;;;;;;;9.23;3.72;;;;;;;;;;4992842;28;20577;-74
2022/10/12 11:48:41;;;;;;;8.27;3.67;;;;;;;;;;4993435;28;20138;-72
2022/10/12 11:51:07;;;;;;;14.68;4.22;;;;;;;;;;4999294;28;20048;-75
2022/10/12 11:53:48;;;;;;;9.43;3.22;;;;;;;;;;4991005;28;20043;-73
2022/10/12 11:56:22;;;;;;;9.48;3.60;;;;;;;;;;4992926;28;20049;-75
2022/10/12 11:58:54;;;;;;;8.77;3.40;;;;;;;;;;4991990;28;20054;-75
2022/10/12 12:01:41;;;;;;;10.05;3.50;;;;;;;;;;4993725;28;20062;-72
2022/10/12 12:04:13;;;;;;;6.60;3.60;;;;;;;;;;4994094;28;20049;-73
2022/10/12 12:06:48;;;;;;;13.52;3.63;;;;;;;;;;4994676;28;20188;-75
2022/10/12 12:09:20;;;;;;;8.25;3.58;;;;;;;;;;4991780;28;20058;-74
2022/10/12 12:11:45;;;;;;;10.10;3.70;;;;;;;;;;4992187;28;20174;-73
2022/10/12 12:14:20;;;;;;;8.73;3.15;;;;;;;;;;4992445;28;20081;-75
2022/10/12 12:16:48;;;;;;;12.10;3.08;;;;;;;;;;4994217;28;20104;-74
2022/10/12 12:19:21;;;;;;;10.18;3.45;;;;;;;;;;4990020;28;20045;-72
2022/10/12 12:22:27;;;;;;;8.75;3.20;;;;;;;;;;4988679;28;20121;-73
2022/10/12 12:24:59;;;;;;;15.35;3.30;;;;;;;;;;4992798;28;20055;-71
2022/10/12 12:27:32;;;;;;;6.93;2.90;;;;;;;;;;4991583;28;20136;-75
2022/10/12 12:30:00;;;;;;;9.07;2.95;;;;;;;;;;4996917;28;20042;-72
2022/10/12 12:32:40;;;;;;;9.50;2.80;;;;;;;;;;4986080;28;20099;-73
2022/10/12 12:35:35;;;;;;;6.32;2.53;;;;;;;;;;4994228;28;20073;-73
2022/10/12 12:38:06;;;;;;;8.57;2.70;;;;;;;;;;4994379;28;20086;-72
2022/10/12 12:40:33;;;;;;;8.82;3.08;;;;;;;;;;4993238;28;20046;-72
2022/10/12 12:43:27;;;;;;;9.38;3.17;;;;;;;;;;4992206;28;20096;-73
2022/10/12 12:45:55;;;;;;;8.00;2.70;;;;;;;;;;4995682;28;20045;-74
2022/10/12 12:48:42;;;;;;;12.13;3.33;;;;;;;;;;4993188;28;20050;-73
2022/10/12 12:51:13;;;;;;;8.18;2.47;;;;;;;;;;4995008;28;20074;-72
2022/10/12 12:53:55;;;;;;;8.48;2.90;;;;;;;;;;4996628;28;20042;-74
2022/10/12 12:56:45;;;;;;;5.22;2.58;;;;;;;;;;5002419;28;20392;-77
2022/10/12 12:59:32;;;;;;;8.13;2.80;;;;;;;;;;4998715;28;20109;-75
2022/10/12 13:02:29;;;;;;;4.90;2.35;;;;;;;;;;4994075;28;20058;-72
2022/10/12 13:05:14;;;;;;;10.02;2.60;;;;;;;;;;4999589;28;20053;-73
2022/10/12 13:08:08;;;;;;;6.72;2.35;;;;;;;;;;4997169;28;20088;-74
2022/10/12 13:10:47;;;;;;;9.57;2.88;;;;;;;;;;4995881;28;20503;-73
2022/10/12 13:13:16;;;;;;;5.30;2.10;;;;;;;;;;4993472;28;20136;-73
2022/10/12 13:16:03;;;;;;;6.60;2.10;;;;;;;;;;4995943;28;20042;-74
2022/10/12 13:18:50;;;;;;;8.02;2.50;;;;;;;;;;4991238;28;20100;-73
2022/10/12 13:21:20;;;;;;;7.72;2.88;;;;;;;;;;4991739;28;20450;-73
2022/10/12 13:23:49;;;;;;;8.55;2.60;;;;;;;;;;4992419;28;20055;-74
2022/10/12 13:26:20;;;;;;;7.07;2.50;;;;;;;;;;4997180;28;20138;-75
2022/10/12 13:28:48;;;;;;;8.57;2.50;;;;;;;;;;4999463;28;20054;-73
2022/10/12 13:31:24;;;;;;;6.85;2.42;;;;;;;;;;4998795;28;20108;-74
2022/10/12 13:34:02;;;;;;;6.22;2.55;;;;;;;;;;4995393;28;20086;-74
2022/10/12 13:36:30;;;;;;;7.85;2.33;;;;;;;;;;4996080;28;20103;-74
2022/10/12 13:38:59;;;;;;;5.10;2.40;;;;;;;;;;4999322;28;20164;-75
2022/10/12 13:41:29;;;;;;;8.85;2.60;;;;;;;;;;4995696;28;20573;-73
2022/10/12 13:43:58;;;;;;;7.18;2.10;;;;;;;;;;4995784;28;20573;-73
2022/10/12 13:46:41;;;;;;;8.10;2.42;;;;;;;;;;4996277;28;20057;-74
2022/10/12 13:49:30;;;;;;;6.43;2.35;;;;;;;;;;4999283;28;20116;-74
2022/10/12 13:52:01;;;;;;;8.10;2.65;;;;;;;;;;4992776;28;20054;-72
2022/10/12 13:54:37;;;;;;;8.00;2.40;;;;;;;;;;4994495;28;20199;-74
2022/10/12 13:57:04;;;;;;;4.15;2.13;;;;;;;;;;5002646;28;20050;-77
2022/10/12 13:59:36;;;;;;;6.60;2.05;;;;;;;;;;4999632;28;20461;-75
2022/10/12 14:02:15;;;;;;;4.95;2.13;;;;;;;;;;5003931;28;20502;-75
2022/10/12 14:04:42;;;;;;;4.70;2.10;;;;;;;;;;4999659;28;20125;-75
2022/10/12 14:07:19;;;;;;;6.68;2.22;;;;;;;;;;4994712;28;20496;-75
2022/10/12 14:09:50;;;;;;;6.75;2.58;;;;;;;;;;4994404;28;20046;-75
2022/10/12 14:12:16;;;;;;;6.68;1.95;;;;;;;;;;4996382;28;20046;-77
2022/10/12 14:14:44;;;;;;;5.65;2.00;;;;;;;;;;4993639;28;20042;-75
2022/10/12 14:17:16;;;;;;;4.82;2.03;;;;;;;;;;4996698;28;20057;-75
2022/10/12 14:19:43;;;;;;;4.10;2.10;;;;;;;;;;4997339;28;20058;-75
2022/10/12 14:22:12;;;;;;;7.07;2.38;;;;;;;;;;4996399;28;20065;-75
2022/10/12 14:24:38;;;;;;;6.78;2.45;;;;;;;;;;4997901;28;20052;-76
2022/10/12 14:27:06;;;;;;;10.10;2.05;;;;;;;;;;4993551;28;20054;-75
2022/10/12 14:29:33;;;;;;;10.57;2.40;;;;;;;;;;4994746;28;20501;-74
2022/10/12 14:32:20;;;;;;;5.57;2.35;;;;;;;;;;4991862;28;20141;-75
2022/10/12 14:34:47;;;;;;;4.63;1.98;;;;;;;;;;4983322;28;20061;-74
2022/10/12 14:37:13;;;;;;;5.85;2.20;;;;;;;;;;4997223;28;20108;-76
2022/10/12 14:39:40;;;;;;;7.85;2.55;;;;;;;;;;4995226;28;20042;-81
2022/10/12 14:42:30;;;;;;;6.85;2.63;;;;;;;;;;4992690;28;20050;-79
2022/10/12 14:44:56;;;;;;;8.15;2.42;;;;;;;;;;4996436;28;20057;-78
2022/10/12 14:47:25;;;;;;;9.45;2.50;;;;;;;;;;4999775;28;20547;-76
2022/10/12 14:49:53;;;;;;;4.68;2.20;;;;;;;;;;4995878;28;20154;-77
2022/10/12 14:52:27;;;;;;;6.20;2.60;;;;;;;;;;4991327;28;20057;-72
2022/10/12 14:54:55;;;;;;;6.93;2.33;;;;;;;;;;4994342;28;21579;-73
2022/10/12 14:57:23;;;;;;;7.95;2.30;;;;;;;;;;4993961;28;20192;-75
2022/10/12 14:59:50;;;;;;;5.13;2.25;;;;;;;;;;4993578;28;20056;-75
2022/10/12 15:02:21;;;;;;;4.70;2.38;;;;;;;;;;4992686;28;20107;-71
2022/10/12 15:04:47;;;;;;;4.45;2.28;;;;;;;;;;4987618;28;20408;-68
2022/10/12 15:07:19;;;;;;;4.45;2.03;;;;;;;;;;4991695;28;20038;-69